Axtell, Texas
Current Conditions -  °F | °C
As of 6:53 PM on Saturday 22 Nov 2014 (Local Time) from KCNW Reporting Station
Light Rain Light Rain  
Wind Chill: 61°   Ceiling: 900
Heat Index: 61°   Visibility: 10mi
Dew Point: 59°   Wind: 6mph
Humidity: 94%   Direction: 320°NW
Pressure: 29.82"   Gusts: NA
Location:  31.66°N, 96.97°W
Report Text: KCNW 230053Z 32005KT 10SM -RA OVC009 16/15 A2982
Loading
Personal Weather Stations






























Interactive Weather Map New forecast layout! Learn more

10-Day Weather Forecast

Advertisements
Track Severe Weather on mobile